sensor_id;sensor_type;location;lat;lon;timestamp;pressure;altitude;pressure_sealevel;temperature;humidity
35918;BME280;22011;59.912;30.300;2022-12-07T00:01:58;101254.19;;;-2.51;67.44
35918;BME280;22011;59.912;30.300;2022-12-07T00:04:26;101252.34;;;-2.49;67.27
35918;BME280;22011;59.912;30.300;2022-12-07T00:06:53;101252.06;;;-2.43;67.40
35918;BME280;22011;59.912;30.300;2022-12-07T00:09:22;101249.31;;;-2.40;67.29
35918;BME280;22011;59.912;30.300;2022-12-07T00:11:50;101258.13;;;-2.43;67.36
35918;BME280;22011;59.912;30.300;2022-12-07T00:14:18;101263.34;;;-2.43;67.38
35918;BME280;22011;59.912;30.300;2022-12-07T00:16:48;101256.03;;;-2.35;67.40
35918;BME280;22011;59.912;30.300;2022-12-07T00:19:16;101254.25;;;-2.34;67.16
35918;BME280;22011;59.912;30.300;2022-12-07T00:21:44;101257.72;;;-2.34;67.01
35918;BME280;22011;59.912;30.300;2022-12-07T00:24:11;101254.03;;;-2.29;67.10
35918;BME280;22011;59.912;30.300;2022-12-07T00:26:42;101239.94;;;-2.25;67.34
35918;BME280;22011;59.912;30.300;2022-12-07T00:29:13;101248.69;;;-2.26;67.55
35918;BME280;22011;59.912;30.300;2022-12-07T00:31:42;101241.34;;;-2.56;68.37
35918;BME280;22011;59.912;30.300;2022-12-07T00:34:12;101239.66;;;-2.57;68.40
35918;BME280;22011;59.912;30.300;2022-12-07T00:36:40;101244.03;;;-2.57;68.17
35918;BME280;22011;59.912;30.300;2022-12-07T00:39:08;101238.81;;;-2.57;68.02
35918;BME280;22011;59.912;30.300;2022-12-07T00:41:35;101250.22;;;-2.41;67.70
35918;BME280;22011;59.912;30.300;2022-12-07T00:44:05;101246.06;;;-2.45;68.12
35918;BME280;22011;59.912;30.300;2022-12-07T00:46:32;101247.00;;;-2.46;68.20
35918;BME280;22011;59.912;30.300;2022-12-07T00:49:00;101240.94;;;-2.47;68.08
35918;BME280;22011;59.912;30.300;2022-12-07T00:51:27;101241.91;;;-2.31;67.10
35918;BME280;22011;59.912;30.300;2022-12-07T00:53:55;101247.13;;;-2.31;67.32
35918;BME280;22011;59.912;30.300;2022-12-07T00:56:24;101251.00;;;-2.39;68.35
35918;BME280;22011;59.912;30.300;2022-12-07T00:58:53;101252.78;;;-2.40;68.02
35918;BME280;22011;59.912;30.300;2022-12-07T01:01:23;101258.91;;;-2.41;68.60
35918;BME280;22011;59.912;30.300;2022-12-07T01:03:51;101250.31;;;-2.43;68.91
35918;BME280;22011;59.912;30.300;2022-12-07T01:06:21;101250.44;;;-2.46;68.86
35918;BME280;22011;59.912;30.300;2022-12-07T01:08:49;101251.66;;;-2.34;68.60
35918;BME280;22011;59.912;30.300;2022-12-07T01:11:18;101250.09;;;-2.19;67.54
35918;BME280;22011;59.912;30.300;2022-12-07T01:13:46;101255.09;;;-2.15;67.82
35918;BME280;22011;59.912;30.300;2022-12-07T01:16:15;101250.22;;;-2.22;67.32
35918;BME280;22011;59.912;30.300;2022-12-07T01:18:46;101253.25;;;-2.32;68.22
35918;BME280;22011;59.912;30.300;2022-12-07T01:21:15;101253.47;;;-2.36;67.72
35918;BME280;22011;59.912;30.300;2022-12-07T01:23:43;101249.53;;;-2.26;67.25
35918;BME280;22011;59.912;30.300;2022-12-07T01:26:15;101248.19;;;-2.35;67.66
35918;BME280;22011;59.912;30.300;2022-12-07T01:28:43;101250.50;;;-2.28;67.09
35918;BME280;22011;59.912;30.300;2022-12-07T01:31:12;101252.34;;;-2.31;67.89
35918;BME280;22011;59.912;30.300;2022-12-07T01:33:42;101242.06;;;-2.34;68.22
35918;BME280;22011;59.912;30.300;2022-12-07T01:36:16;101241.69;;;-2.26;68.54
35918;BME280;22011;59.912;30.300;2022-12-07T01:38:44;101242.81;;;-2.32;67.46
35918;BME280;22011;59.912;30.300;2022-12-07T01:41:12;101247.13;;;-2.31;67.79
35918;BME280;22011;59.912;30.300;2022-12-07T01:44:09;101237.81;;;-2.17;67.90
35918;BME280;22011;59.912;30.300;2022-12-07T01:46:37;101248.13;;;-2.33;67.52
35918;BME280;22011;59.912;30.300;2022-12-07T01:49:07;101233.31;;;-2.33;67.76
35918;BME280;22011;59.912;30.300;2022-12-07T01:51:38;101233.16;;;-2.29;68.33
35918;BME280;22011;59.912;30.300;2022-12-07T01:54:08;101241.00;;;-2.29;68.68
35918;BME280;22011;59.912;30.300;2022-12-07T01:56:37;101233.03;;;-2.26;68.33
35918;BME280;22011;59.912;30.300;2022-12-07T01:59:05;101235.69;;;-2.28;68.40
35918;BME280;22011;59.912;30.300;2022-12-07T02:01:33;101236.53;;;-2.27;68.95
35918;BME280;22011;59.912;30.300;2022-12-07T02:04:00;101241.34;;;-2.18;68.38
35918;BME280;22011;59.912;30.300;2022-12-07T02:06:29;101236.91;;;-1.99;67.90
35918;BME280;22011;59.912;30.300;2022-12-07T02:08:58;101222.94;;;-1.98;67.71
35918;BME280;22011;59.912;30.300;2022-12-07T02:11:26;101230.75;;;-1.98;67.64
35918;BME280;22011;59.912;30.300;2022-12-07T02:13:53;101238.03;;;-2.05;68.03
35918;BME280;22011;59.912;30.300;2022-12-07T02:16:27;101240.91;;;-1.92;68.83
35918;BME280;22011;59.912;30.300;2022-12-07T02:19:13;101233.06;;;-1.92;68.79
35918;BME280;22011;59.912;30.300;2022-12-07T02:21:56;101233.06;;;-1.92;68.68
35918;BME280;22011;59.912;30.300;2022-12-07T02:24:45;101230.25;;;-1.87;69.21
35918;BME280;22011;59.912;30.300;2022-12-07T02:27:36;101233.56;;;-1.84;69.53
35918;BME280;22011;59.912;30.300;2022-12-07T02:30:08;101220.78;;;-1.90;68.17
35918;BME280;22011;59.912;30.300;2022-12-07T02:32:42;101219.78;;;-1.87;68.66
35918;BME280;22011;59.912;30.300;2022-12-07T02:35:16;101215.63;;;-1.91;68.46
35918;BME280;22011;59.912;30.300;2022-12-07T02:37:53;101225.03;;;-1.87;68.73
35918;BME280;22011;59.912;30.300;2022-12-07T02:40:28;101228.38;;;-2.03;68.68
35918;BME280;22011;59.912;30.300;2022-12-07T02:43:01;101222.78;;;-1.95;68.75
35918;BME280;22011;59.912;30.300;2022-12-07T02:45:34;101218.19;;;-1.90;68.59
35918;BME280;22011;59.912;30.300;2022-12-07T02:48:02;101218.16;;;-2.07;68.75
35918;BME280;22011;59.912;30.300;2022-12-07T02:50:31;101217.56;;;-1.95;68.52
35918;BME280;22011;59.912;30.300;2022-12-07T02:52:58;101218.19;;;-1.90;68.52
35918;BME280;22011;59.912;30.300;2022-12-07T02:55:29;101219.09;;;-2.08;69.20
35918;BME280;22011;59.912;30.300;2022-12-07T02:58:13;101213.25;;;-2.13;69.93
35918;BME280;22011;59.912;30.300;2022-12-07T03:00:53;101216.00;;;-1.99;69.77
35918;BME280;22011;59.912;30.300;2022-12-07T03:03:23;101207.47;;;-2.20;69.84
35918;BME280;22011;59.912;30.300;2022-12-07T03:06:04;101205.28;;;-2.10;69.87
35918;BME280;22011;59.912;30.300;2022-12-07T03:08:44;101214.03;;;-2.11;69.50
35918;BME280;22011;59.912;30.300;2022-12-07T03:11:14;101206.56;;;-2.19;69.22
35918;BME280;22011;59.912;30.300;2022-12-07T03:13:48;101211.41;;;-1.94;68.25
35918;BME280;22011;59.912;30.300;2022-12-07T03:16:21;101208.19;;;-1.99;67.87
35918;BME280;22011;59.912;30.300;2022-12-07T03:18:54;101206.13;;;-2.10;68.26
35918;BME280;22011;59.912;30.300;2022-12-07T03:21:25;101194.06;;;-1.95;67.66
35918;BME280;22011;59.912;30.300;2022-12-07T03:23:57;101204.06;;;-1.86;67.98
35918;BME280;22011;59.912;30.300;2022-12-07T03:26:30;101206.28;;;-1.78;67.59
35918;BME280;22011;59.912;30.300;2022-12-07T03:29:02;101212.34;;;-1.78;68.29
35918;BME280;22011;59.912;30.300;2022-12-07T03:31:35;101205.22;;;-1.74;68.07
35918;BME280;22011;59.912;30.300;2022-12-07T03:34:08;101207.75;;;-1.73;68.20
35918;BME280;22011;59.912;30.300;2022-12-07T03:36:40;101210.38;;;-1.73;67.80
35918;BME280;22011;59.912;30.300;2022-12-07T03:39:17;101201.31;;;-1.66;68.36
35918;BME280;22011;59.912;30.300;2022-12-07T03:41:49;101198.31;;;-1.75;67.69
35918;BME280;22011;59.912;30.300;2022-12-07T03:44:17;101203.59;;;-1.77;67.97
35918;BME280;22011;59.912;30.300;2022-12-07T03:46:54;101205.91;;;-1.71;68.88
35918;BME280;22011;59.912;30.300;2022-12-07T03:49:27;101195.91;;;-1.80;68.49
35918;BME280;22011;59.912;30.300;2022-12-07T03:52:02;101200.97;;;-1.77;68.74
35918;BME280;22011;59.912;30.300;2022-12-07T03:54:40;101187.22;;;-1.80;69.43
35918;BME280;22011;59.912;30.300;2022-12-07T03:57:09;101185.06;;;-1.89;69.71
35918;BME280;22011;59.912;30.300;2022-12-07T03:59:38;101184.06;;;-1.87;69.79
35918;BME280;22011;59.912;30.300;2022-12-07T04:02:11;101187.31;;;-1.82;70.10
35918;BME280;22011;59.912;30.300;2022-12-07T04:04:40;101189.44;;;-1.90;69.50
35918;BME280;22011;59.912;30.300;2022-12-07T04:07:09;101181.63;;;-1.90;69.10
35918;BME280;22011;59.912;30.300;2022-12-07T04:09:36;101182.53;;;-1.91;69.29
35918;BME280;22011;59.912;30.300;2022-12-07T04:12:04;101189.31;;;-1.87;69.29
35918;BME280;22011;59.912;30.300;2022-12-07T04:14:32;101187.47;;;-1.85;69.33
35918;BME280;22011;59.912;30.300;2022-12-07T04:16:59;101198.81;;;-1.86;69.36
35918;BME280;22011;59.912;30.300;2022-12-07T04:19:30;101196.00;;;-1.81;69.27
35918;BME280;22011;59.912;30.300;2022-12-07T04:22:03;101192.00;;;-1.88;69.40
35918;BME280;22011;59.912;30.300;2022-12-07T04:24:31;101180.78;;;-1.90;69.04
35918;BME280;22011;59.912;30.300;2022-12-07T04:26:58;101177.09;;;-1.86;68.77
35918;BME280;22011;59.912;30.300;2022-12-07T04:29:26;101175.41;;;-1.87;68.91
35918;BME280;22011;59.912;30.300;2022-12-07T04:31:53;101177.16;;;-1.88;69.48
35918;BME280;22011;59.912;30.300;2022-12-07T04:34:21;101171.94;;;-1.88;69.94
35918;BME280;22011;59.912;30.300;2022-12-07T04:36:50;101181.38;;;-1.85;70.01
35918;BME280;22011;59.912;30.300;2022-12-07T04:39:20;101170.03;;;-1.84;69.62
35918;BME280;22011;59.912;30.300;2022-12-07T04:41:48;101167.63;;;-1.89;69.59
35918;BME280;22011;59.912;30.300;2022-12-07T04:44:16;101163.19;;;-1.87;69.34
35918;BME280;22011;59.912;30.300;2022-12-07T04:46:44;101170.78;;;-1.82;68.79
35918;BME280;22011;59.912;30.300;2022-12-07T04:49:12;101172.31;;;-1.78;68.15
35918;BME280;22011;59.912;30.300;2022-12-07T04:51:41;101165.56;;;-1.82;68.24
35918;BME280;22011;59.912;30.300;2022-12-07T04:54:10;101171.63;;;-1.82;68.06
35918;BME280;22011;59.912;30.300;2022-12-07T04:56:38;101166.41;;;-1.82;68.78
35918;BME280;22011;59.912;30.300;2022-12-07T04:59:06;101173.63;;;-1.87;68.15
35918;BME280;22011;59.912;30.300;2022-12-07T05:01:34;101175.31;;;-1.86;67.94
35918;BME280;22011;59.912;30.300;2022-12-07T05:04:02;101180.63;;;-1.87;68.30
35918;BME280;22011;59.912;30.300;2022-12-07T05:06:30;101176.31;;;-1.88;69.21
35918;BME280;22011;59.912;30.300;2022-12-07T05:08:57;101184.22;;;-1.90;68.15
35918;BME280;22011;59.912;30.300;2022-12-07T05:11:26;101182.31;;;-1.86;68.83
35918;BME280;22011;59.912;30.300;2022-12-07T05:14:08;101187.47;;;-1.85;68.47
35918;BME280;22011;59.912;30.300;2022-12-07T05:16:36;101178.84;;;-1.87;68.19
35918;BME280;22011;59.912;30.300;2022-12-07T05:19:04;101176.16;;;-1.85;68.77
35918;BME280;22011;59.912;30.300;2022-12-07T05:21:32;101170.94;;;-1.85;68.11
35918;BME280;22011;59.912;30.300;2022-12-07T05:23:59;101169.03;;;-1.82;67.88
35918;BME280;22011;59.912;30.300;2022-12-07T05:26:28;101177.47;;;-1.77;67.75
35918;BME280;22011;59.912;30.300;2022-12-07T05:28:57;101175.09;;;-1.81;67.92
35918;BME280;22011;59.912;30.300;2022-12-07T05:31:25;101173.47;;;-1.84;68.36
35918;BME280;22011;59.912;30.300;2022-12-07T05:33:53;101178.84;;;-1.87;68.62
35918;BME280;22011;59.912;30.300;2022-12-07T05:36:21;101175.47;;;-1.89;68.58
35918;BME280;22011;59.912;30.300;2022-12-07T05:38:48;101179.56;;;-1.83;68.92
35918;BME280;22011;59.912;30.300;2022-12-07T05:41:17;101184.69;;;-1.82;68.42
35918;BME280;22011;59.912;30.300;2022-12-07T05:44:05;101177.72;;;-1.81;68.92
35918;BME280;22011;59.912;30.300;2022-12-07T05:46:32;101170.94;;;-1.85;68.84
35918;BME280;22011;59.912;30.300;2022-12-07T05:49:00;101178.78;;;-1.85;68.49
35918;BME280;22011;59.912;30.300;2022-12-07T05:51:27;101181.47;;;-1.87;68.39
35918;BME280;22011;59.912;30.300;2022-12-07T05:53:55;101176.09;;;-1.84;68.09
35918;BME280;22011;59.912;30.300;2022-12-07T05:56:24;101177.84;;;-1.84;68.16
35918;BME280;22011;59.912;30.300;2022-12-07T05:58:52;101175.03;;;-1.80;68.41
35918;BME280;22011;59.912;30.300;2022-12-07T06:01:38;101181.00;;;-1.78;68.13
35918;BME280;22011;59.912;30.300;2022-12-07T06:04:06;101173.31;;;-1.81;68.46
35918;BME280;22011;59.912;30.300;2022-12-07T06:06:34;101174.16;;;-1.80;67.76
35918;BME280;22011;59.912;30.300;2022-12-07T06:09:02;101173.94;;;-1.76;67.78
35918;BME280;22011;59.912;30.300;2022-12-07T06:11:30;101172.41;;;-1.80;67.43
35918;BME280;22011;59.912;30.300;2022-12-07T06:14:29;101170.56;;;-1.78;66.96
35918;BME280;22011;59.912;30.300;2022-12-07T06:16:58;101170.56;;;-1.78;67.93
35918;BME280;22011;59.912;30.300;2022-12-07T06:19:25;101173.25;;;-1.79;67.93
35918;BME280;22011;59.912;30.300;2022-12-07T06:21:53;101169.56;;;-1.75;67.84
35918;BME280;22011;59.912;30.300;2022-12-07T06:24:21;101168.56;;;-1.73;67.25
35918;BME280;22011;59.912;30.300;2022-12-07T06:26:49;101173.03;;;-1.75;67.77
35918;BME280;22011;59.912;30.300;2022-12-07T06:29:17;101168.56;;;-1.73;68.35
35918;BME280;22011;59.912;30.300;2022-12-07T06:31:45;101163.41;;;-1.74;67.65
35918;BME280;22011;59.912;30.300;2022-12-07T06:34:16;101159.81;;;-1.72;68.08
35918;BME280;22011;59.912;30.300;2022-12-07T06:36:44;101158.34;;;-1.77;68.41
35918;BME280;22011;59.912;30.300;2022-12-07T06:39:11;101155.50;;;-1.73;67.61
35918;BME280;22011;59.912;30.300;2022-12-07T06:41:39;101165.03;;;-1.72;67.78
35918;BME280;22011;59.912;30.300;2022-12-07T06:44:07;101165.94;;;-1.73;67.74
35918;BME280;22011;59.912;30.300;2022-12-07T06:46:34;101165.81;;;-1.70;67.97
35918;BME280;22011;59.912;30.300;2022-12-07T06:49:02;101170.88;;;-1.67;68.10
35918;BME280;22011;59.912;30.300;2022-12-07T06:51:32;101163.81;;;-1.65;67.26
35918;BME280;22011;59.912;30.300;2022-12-07T06:54:01;101163.03;;;-1.67;67.09
35918;BME280;22011;59.912;30.300;2022-12-07T06:56:28;101165.66;;;-1.67;66.93
35918;BME280;22011;59.912;30.300;2022-12-07T06:58:56;101156.88;;;-1.66;66.30
35918;BME280;22011;59.912;30.300;2022-12-07T07:01:23;101164.81;;;-1.67;66.06
35918;BME280;22011;59.912;30.300;2022-12-07T07:03:51;101169.41;;;-1.72;66.66
35918;BME280;22011;59.912;30.300;2022-12-07T07:06:18;101167.66;;;-1.72;66.23
35918;BME280;22011;59.912;30.300;2022-12-07T07:08:47;101170.63;;;-1.62;66.28
35918;BME280;22011;59.912;30.300;2022-12-07T07:11:15;101172.25;;;-1.59;65.69
35918;BME280;22011;59.912;30.300;2022-12-07T07:13:42;101167.78;;;-1.57;65.33
35918;BME280;22011;59.912;30.300;2022-12-07T07:16:10;101172.94;;;-1.56;65.76
35918;BME280;22011;59.912;30.300;2022-12-07T07:18:37;101174.63;;;-1.55;65.33
35918;BME280;22011;59.912;30.300;2022-12-07T07:21:05;101169.31;;;-1.53;65.00
35918;BME280;22011;59.912;30.300;2022-12-07T07:23:32;101172.78;;;-1.53;65.16
35918;BME280;22011;59.912;30.300;2022-12-07T07:26:01;101166.56;;;-1.50;65.17
35918;BME280;22011;59.912;30.300;2022-12-07T07:28:29;101168.56;;;-1.55;65.19
35918;BME280;22011;59.912;30.300;2022-12-07T07:30:56;101176.16;;;-1.51;65.15
35918;BME280;22011;59.912;30.300;2022-12-07T07:33:24;101171.78;;;-1.50;65.38
35918;BME280;22011;59.912;30.300;2022-12-07T07:35:51;101165.88;;;-1.54;65.42
35918;BME280;22011;59.912;30.300;2022-12-07T07:38:19;101169.31;;;-1.53;65.24
35918;BME280;22011;59.912;30.300;2022-12-07T07:40:46;101165.88;;;-1.54;64.79
35918;BME280;22011;59.912;30.300;2022-12-07T07:43:15;101171.78;;;-1.50;65.20
35918;BME280;22011;59.912;30.300;2022-12-07T07:45:43;101175.41;;;-1.53;64.60
35918;BME280;22011;59.912;30.300;2022-12-07T07:48:11;101180.56;;;-1.51;64.72
35918;BME280;22011;59.912;30.300;2022-12-07T07:50:38;101175.41;;;-1.53;64.84
35918;BME280;22011;59.912;30.300;2022-12-07T07:53:06;101177.16;;;-1.53;64.89
35918;BME280;22011;59.912;30.300;2022-12-07T07:55:34;101169.16;;;-1.50;65.84
35918;BME280;22011;59.912;30.300;2022-12-07T07:58:02;101173.47;;;-1.49;65.27
35918;BME280;22011;59.912;30.300;2022-12-07T08:00:31;101172.63;;;-1.50;66.15
35918;BME280;22011;59.912;30.300;2022-12-07T08:02:58;101165.78;;;-1.52;65.21
35918;BME280;22011;59.912;30.300;2022-12-07T08:05:26;101164.72;;;-1.48;65.23
35918;BME280;22011;59.912;30.300;2022-12-07T08:07:53;101167.09;;;-1.44;64.90
35918;BME280;22011;59.912;30.300;2022-12-07T08:10:21;101166.41;;;-1.47;65.89
35918;BME280;22011;59.912;30.300;2022-12-07T08:12:48;101176.16;;;-1.51;66.50
35918;BME280;22011;59.912;30.300;2022-12-07T08:15:37;101177.47;;;-1.42;66.49
35918;BME280;22011;59.912;30.300;2022-12-07T08:18:05;101168.84;;;-1.44;66.26
35918;BME280;22011;59.912;30.300;2022-12-07T08:20:33;101173.00;;;-1.40;66.86
35918;BME280;22011;59.912;30.300;2022-12-07T08:23:02;101167.69;;;-1.39;65.98
35918;BME280;22011;59.912;30.300;2022-12-07T08:25:30;101165.84;;;-1.37;66.04
35918;BME280;22011;59.912;30.300;2022-12-07T08:27:57;101156.47;;;-1.41;66.40
35918;BME280;22011;59.912;30.300;2022-12-07T08:30:26;101162.78;;;-1.45;66.59
35918;BME280;22011;59.912;30.300;2022-12-07T08:32:56;101164.72;;;-1.48;67.48
35918;BME280;22011;59.912;30.300;2022-12-07T08:35:23;101164.03;;;-1.52;67.55
35918;BME280;22011;59.912;30.300;2022-12-07T08:37:51;101150.03;;;-1.51;67.36
35918;BME280;22011;59.912;30.300;2022-12-07T08:40:19;101158.56;;;-1.47;67.23
35918;BME280;22011;59.912;30.300;2022-12-07T08:42:49;101152.41;;;-1.46;67.26
35918;BME280;22011;59.912;30.300;2022-12-07T08:45:18;101149.19;;;-1.51;67.67
35918;BME280;22011;59.912;30.300;2022-12-07T08:47:49;101152.56;;;-1.49;67.89
35918;BME280;22011;59.912;30.300;2022-12-07T08:50:19;101142.44;;;-1.55;67.61
35918;BME280;22011;59.912;30.300;2022-12-07T08:52:49;101141.44;;;-1.53;67.85
35918;BME280;22011;59.912;30.300;2022-12-07T08:55:19;101142.50;;;-1.57;68.30
35918;BME280;22011;59.912;30.300;2022-12-07T08:57:47;101138.06;;;-1.55;68.03
35918;BME280;22011;59.912;30.300;2022-12-07T09:00:15;101140.59;;;-1.53;68.36
35918;BME280;22011;59.912;30.300;2022-12-07T09:02:43;101140.66;;;-1.55;69.33
35918;BME280;22011;59.912;30.300;2022-12-07T09:05:12;101137.22;;;-1.55;69.18
35918;BME280;22011;59.912;30.300;2022-12-07T09:07:43;101138.59;;;-1.48;69.35
35918;BME280;22011;59.912;30.300;2022-12-07T09:10:11;101134.50;;;-1.54;69.49
35918;BME280;22011;59.912;30.300;2022-12-07T09:12:39;101131.06;;;-1.54;70.29
35918;BME280;22011;59.912;30.300;2022-12-07T09:15:08;101129.47;;;-1.74;70.30
35918;BME280;22011;59.912;30.300;2022-12-07T09:17:35;101129.00;;;-1.82;70.22
35918;BME280;22011;59.912;30.300;2022-12-07T09:20:04;101126.47;;;-1.84;69.99
35918;BME280;22011;59.912;30.300;2022-12-07T09:22:33;101125.69;;;-1.86;69.83
35918;BME280;22011;59.912;30.300;2022-12-07T09:25:03;101132.38;;;-1.80;70.04
35918;BME280;22011;59.912;30.300;2022-12-07T09:27:31;101120.63;;;-1.89;69.48
35918;BME280;22011;59.912;30.300;2022-12-07T09:29:59;101121.31;;;-1.85;69.69
35918;BME280;22011;59.912;30.300;2022-12-07T09:32:26;101127.31;;;-1.83;69.86
35918;BME280;22011;59.912;30.300;2022-12-07T09:34:54;101125.22;;;-1.59;68.95
35918;BME280;22011;59.912;30.300;2022-12-07T09:37:21;101121.53;;;-1.55;68.09
35918;BME280;22011;59.912;30.300;2022-12-07T09:39:49;101121.22;;;-1.49;67.83
35918;BME280;22011;59.912;30.300;2022-12-07T09:42:29;101117.72;;;-1.33;68.22
35918;BME280;22011;59.912;30.300;2022-12-07T09:44:58;101117.69;;;-1.48;67.67
35918;BME280;22011;59.912;30.300;2022-12-07T09:47:26;101109.06;;;-1.50;67.08
35918;BME280;22011;59.912;30.300;2022-12-07T09:49:58;101111.84;;;-1.53;67.32
35918;BME280;22011;59.912;30.300;2022-12-07T09:52:28;101110.91;;;-1.52;67.30
35918;BME280;22011;59.912;30.300;2022-12-07T09:54:56;101101.31;;;-1.52;67.46
35918;BME280;22011;59.912;30.300;2022-12-07T09:57:29;101101.50;;;-1.39;67.28
35918;BME280;22011;59.912;30.300;2022-12-07T10:00:00;101101.50;;;-1.39;67.42
35918;BME280;22011;59.912;30.300;2022-12-07T10:02:36;101112.66;;;-1.36;67.37
35918;BME280;22011;59.912;30.300;2022-12-07T10:05:06;101096.44;;;-1.42;66.97
35918;BME280;22011;59.912;30.300;2022-12-07T10:07:34;101089.78;;;-1.48;67.92
35918;BME280;22011;59.912;30.300;2022-12-07T10:10:04;101088.84;;;-1.47;67.07
35918;BME280;22011;59.912;30.300;2022-12-07T10:12:52;101086.84;;;-1.42;67.53
35918;BME280;22011;59.912;30.300;2022-12-07T10:15:19;101083.66;;;-1.64;67.17
35918;BME280;22011;59.912;30.300;2022-12-07T10:17:48;101086.34;;;-1.66;66.90
35918;BME280;22011;59.912;30.300;2022-12-07T10:20:23;101090.81;;;-1.68;67.42
35918;BME280;22011;59.912;30.300;2022-12-07T10:22:56;101074.13;;;-1.65;67.54
35918;BME280;22011;59.912;30.300;2022-12-07T10:25:27;101077.66;;;-1.66;67.65
35918;BME280;22011;59.912;30.300;2022-12-07T10:28:01;101074.50;;;-1.55;67.60
35918;BME280;22011;59.912;30.300;2022-12-07T10:30:30;101086.09;;;-1.61;67.65
35918;BME280;22011;59.912;30.300;2022-12-07T10:32:59;101071.34;;;-1.62;66.96
35918;BME280;22011;59.912;30.300;2022-12-07T10:35:27;101072.97;;;-1.59;67.24
35918;BME280;22011;59.912;30.300;2022-12-07T10:37:57;101068.44;;;-1.56;67.36
35918;BME280;22011;59.912;30.300;2022-12-07T10:40:31;101067.94;;;-1.47;67.54
35918;BME280;22011;59.912;30.300;2022-12-07T10:43:03;101082.16;;;-1.52;67.31
35918;BME280;22011;59.912;30.300;2022-12-07T10:45:32;101068.66;;;-1.60;67.33
35918;BME280;22011;59.912;30.300;2022-12-07T10:48:02;101067.53;;;-1.39;67.66
35918;BME280;22011;59.912;30.300;2022-12-07T10:50:47;101072.97;;;-1.59;67.03
35918;BME280;22011;59.912;30.300;2022-12-07T10:53:28;101073.59;;;-1.72;67.21
35918;BME280;22011;59.912;30.300;2022-12-07T10:56:14;101063.47;;;-1.78;66.89
35918;BME280;22011;59.912;30.300;2022-12-07T10:58:54;101067.16;;;-1.82;66.68
35918;BME280;22011;59.912;30.300;2022-12-07T11:01:30;101058.41;;;-1.98;67.19
35918;BME280;22011;59.912;30.300;2022-12-07T11:04:18;101056.25;;;-1.90;66.99
35918;BME280;22011;59.912;30.300;2022-12-07T11:06:54;101053.03;;;-1.95;66.63
35918;BME280;22011;59.912;30.300;2022-12-07T11:12:29;101040.34;;;-1.85;66.54
35918;BME280;22011;59.912;30.300;2022-12-07T11:15:13;101041.88;;;-1.81;66.54
35918;BME280;22011;59.912;30.300;2022-12-07T11:17:49;101054.78;;;-1.78;66.96
35918;BME280;22011;59.912;30.300;2022-12-07T11:20:32;101053.38;;;-1.68;67.16
35918;BME280;22011;59.912;30.300;2022-12-07T11:23:07;101058.09;;;-1.75;66.08
35918;BME280;22011;59.912;30.300;2022-12-07T11:25:42;101044.09;;;-1.74;66.23
35918;BME280;22011;59.912;30.300;2022-12-07T11:28:21;101041.16;;;-1.68;65.79
35918;BME280;22011;59.912;30.300;2022-12-07T11:31:00;101036.25;;;-1.74;65.67
35918;BME280;22011;59.912;30.300;2022-12-07T11:33:34;101030.59;;;-1.82;65.16
35918;BME280;22011;59.912;30.300;2022-12-07T11:36:12;101030.50;;;-1.80;65.00
35918;BME280;22011;59.912;30.300;2022-12-07T11:38:49;101040.50;;;-1.88;64.94
35918;BME280;22011;59.912;30.300;2022-12-07T11:41:22;101036.13;;;-1.88;65.30
35918;BME280;22011;59.912;30.300;2022-12-07T11:43:56;101038.34;;;-2.13;65.96
35918;BME280;22011;59.912;30.300;2022-12-07T11:46:39;101030.91;;;-1.88;65.82
35918;BME280;22011;59.912;30.300;2022-12-07T11:49:16;101039.50;;;-1.86;64.99
35918;BME280;22011;59.912;30.300;2022-12-07T11:51:49;101029.22;;;-1.89;64.71
35918;BME280;22011;59.912;30.300;2022-12-07T11:54:23;101031.84;;;-2.06;64.86
35918;BME280;22011;59.912;30.300;2022-12-07T11:56:53;101022.31;;;-1.90;64.09
35918;BME280;22011;59.912;30.300;2022-12-07T11:59:27;101026.00;;;-1.94;64.63
35918;BME280;22011;59.912;30.300;2022-12-07T12:02:03;101026.94;;;-1.95;64.39
35918;BME280;22011;59.912;30.300;2022-12-07T12:04:47;101029.00;;;-2.02;64.15
35918;BME280;22011;59.912;30.300;2022-12-07T12:07:19;101027.38;;;-2.37;65.42
35918;BME280;22011;59.912;30.300;2022-12-07T12:09:51;101019.00;;;-2.44;65.67
35918;BME280;22011;59.912;30.300;2022-12-07T12:12:39;101019.47;;;-2.36;66.85
35918;BME280;22011;59.912;30.300;2022-12-07T12:15:26;101024.69;;;-2.36;66.72
35918;BME280;22011;59.912;30.300;2022-12-07T12:18:27;101025.22;;;-2.29;67.10
35918;BME280;22011;59.912;30.300;2022-12-07T12:21:02;101028.81;;;-2.32;67.15
35918;BME280;22011;59.912;30.300;2022-12-07T12:23:37;101021.84;;;-2.31;66.49
35918;BME280;22011;59.912;30.300;2022-12-07T12:26:15;101024.53;;;-2.33;66.52
35918;BME280;22011;59.912;30.300;2022-12-07T12:28:51;101010.03;;;-2.38;66.78
35918;BME280;22011;59.912;30.300;2022-12-07T12:31:32;101014.53;;;-2.42;67.17
35918;BME280;22011;59.912;30.300;2022-12-07T12:34:29;101017.75;;;-2.54;66.66
35918;BME280;22011;59.912;30.300;2022-12-07T12:36:57;101014.78;;;-2.46;66.71
35918;BME280;22011;59.912;30.300;2022-12-07T12:39:25;101008.03;;;-2.33;66.16
35918;BME280;22011;59.912;30.300;2022-12-07T12:41:59;101001.34;;;-2.21;65.98
35918;BME280;22011;59.912;30.300;2022-12-07T12:47:40;101000.97;;;-1.98;65.76
35918;BME280;22011;59.912;30.300;2022-12-07T12:50:17;101000.53;;;-2.06;65.88
35918;BME280;22011;59.912;30.300;2022-12-07T12:53:12;100995.22;;;-2.38;66.68
35918;BME280;22011;59.912;30.300;2022-12-07T12:56:07;101000.13;;;-2.49;67.57
35918;BME280;22011;59.912;30.300;2022-12-07T12:58:41;101002.28;;;-2.40;66.18
35918;BME280;22011;59.912;30.300;2022-12-07T13:01:44;100989.22;;;-2.22;66.43
35918;BME280;22011;59.912;30.300;2022-12-07T13:04:37;100983.84;;;-2.19;67.26
35918;BME280;22011;59.912;30.300;2022-12-07T13:07:11;100991.69;;;-2.37;66.56
35918;BME280;22011;59.912;30.300;2022-12-07T13:09:43;100990.13;;;-2.41;66.26